Couch, Missouri
Current Conditions -  °F | °C
As of 10:53 AM on Friday 21 Nov 2014 (Local Time) from KUNO Reporting Station
Overcast Overcast  
Wind Chill:   Ceiling: 1900
Heat Index:   Visibility: 10mi
Dew Point: -4°   Wind: 7mph
Humidity: 53%   Direction: 140°SE
Pressure: 30.33"   Gusts: 16mph
Location:  36.61°N, 91.38°W
Report Text: KUNO 211653Z AUTO 14006G14KT 10SM OVC019 04/M04 A3033 RMK AO2 SLP276 T00441044
Loading
Personal Weather Stations






























Interactive Weather Map New forecast layout! Learn more

10-Day Weather Forecast

Advertisements
Track Severe Weather on mobile